Time;durP1;ratioP1;P1;durP2;ratioP2;P2;SDS_P1;SDS_P2;PMS_P1;PMS_P2;Temp;Humidity;BMP_temperature;BMP_pressure;BME280_temperature;BME280_humidity;BME280_pressure;Samples;Min_cycle;Max_cycle;Signal;HPM_P1;HPM_P2
2021/12/04 00:00:41;;;;;;;;;12.50;12.00;;;;;6.55;78.73;99837.09;5010386;28;45888;-72
2021/12/04 00:03:07;;;;;;;;;13.00;10.25;;;;;6.43;79.12;99814.69;5008848;28;45268;-72
2021/12/04 00:05:32;;;;;;;;;13.25;13.00;;;;;6.54;79.53;99830.13;5013858;28;45603;-72
2021/12/04 00:07:58;;;;;;;;;12.00;9.00;;;;;6.53;79.74;99834.53;5004725;28;45567;-72
2021/12/04 00:10:28;;;;;;;;;12.50;9.25;;;;;6.55;79.72;99827.44;5010057;28;45284;-72
2021/12/04 00:12:53;;;;;;;;;9.00;8.75;;;;;6.47;79.48;99804.94;5014083;28;45433;-72
2021/12/04 00:15:19;;;;;;;;;9.50;8.25;;;;;6.44;79.38;99803.28;5013735;28;45891;-72
2021/12/04 00:17:44;;;;;;;;;9.00;8.25;;;;;6.43;79.09;99785.78;5012010;28;45505;-72
2021/12/04 00:20:10;;;;;;;;;6.50;6.50;;;;;6.56;78.67;99816.03;5012871;28;45335;-72
2021/12/04 00:22:36;;;;;;;;;11.50;7.25;;;;;6.50;79.16;99810.97;5013642;28;45450;-72
2021/12/04 00:25:04;;;;;;;;;8.50;8.00;;;;;6.39;79.20;99788.59;5013887;28;45500;-72
2021/12/04 00:27:29;;;;;;;;;9.00;8.25;;;;;6.56;79.22;99791.53;5018338;28;45322;-72
2021/12/04 00:29:56;;;;;;;;;7.00;6.75;;;;;6.39;79.12;99750.00;5011755;28;45478;-72
2021/12/04 00:32:32;;;;;;;;;9.00;8.00;;;;;6.53;79.74;99781.06;5005831;28;45596;-72
2021/12/04 00:51:16;;;;;;;;;6.75;6.75;;;;;6.52;79.46;99766.22;5014190;28;45281;-72
2021/12/04 00:53:42;;;;;;;;;9.50;8.00;;;;;6.46;79.96;99758.56;4997919;28;45567;-72
2021/12/04 00:56:07;;;;;;;;;9.00;7.50;;;;;6.46;79.66;99748.03;5014907;28;45470;-72
2021/12/04 00:58:33;;;;;;;;;8.00;8.00;;;;;6.50;79.12;99766.28;5013938;28;45369;-72
2021/12/04 01:00:58;;;;;;;;;9.50;7.75;;;;;6.36;80.10;99732.56;5006491;28;45439;-72
2021/12/04 01:03:25;;;;;;;;;13.00;8.50;;;;;6.51;79.93;99749.59;5012515;28;45407;-72
2021/12/04 01:05:50;;;;;;;;;11.75;9.25;;;;;6.05;79.82;99669.66;5015319;28;46361;-72
2021/12/04 01:08:16;;;;;;;;;13.00;8.00;;;;;6.29;79.38;99710.03;5024855;28;45400;-72
2021/12/04 01:10:41;;;;;;;;;12.00;9.75;;;;;6.46;79.40;99734.88;5019528;28;45345;-72
2021/12/04 01:13:11;;;;;;;;;8.25;7.00;;;;;6.36;79.21;99718.59;5011846;28;45420;-72
2021/12/04 01:15:44;;;;;;;;;8.00;7.00;;;;;6.23;79.48;99694.47;5007115;28;45353;-72
2021/12/04 01:18:10;;;;;;;;;9.25;9.25;;;;;6.42;80.04;99728.03;5006380;28;45542;-72
2021/12/04 01:20:37;;;;;;;;;7.50;6.50;;;;;6.17;79.78;99678.91;5012232;28;45503;-72
2021/12/04 01:23:03;;;;;;;;;8.00;7.00;;;;;6.42;79.93;99714.88;5016830;28;45514;-72
2021/12/04 01:25:28;;;;;;;;;7.00;7.00;;;;;6.28;79.87;99689.91;5012983;28;46028;-72
2021/12/04 01:27:54;;;;;;;;;8.00;7.00;;;;;6.46;79.42;99724.38;5009356;28;45439;-72
2021/12/04 01:30:19;;;;;;;;;10.00;8.25;;;;;6.42;79.55;99707.84;5013495;28;45450;-72
2021/12/04 01:32:45;;;;;;;;;7.75;7.25;;;;;6.28;80.25;99682.03;5009430;28;45712;-72
2021/12/04 01:35:10;;;;;;;;;11.50;8.50;;;;;6.20;80.14;99673.53;5011615;28;48413;-72
2021/12/04 01:37:36;;;;;;;;;12.25;8.25;;;;;6.01;79.52;99638.31;5016720;28;45442;-72
2021/12/04 01:40:01;;;;;;;;;12.25;8.00;;;;;6.31;80.15;99695.06;5011832;28;45352;-72
2021/12/04 01:42:28;;;;;;;;;8.25;8.25;;;;;6.28;79.97;99671.53;5009015;28;45324;-72
2021/12/04 01:44:54;;;;;;;;;15.00;10.00;;;;;6.30;80.02;99669.72;5015728;28;45636;-72
2021/12/04 01:47:20;;;;;;;;;13.00;9.00;;;;;6.20;80.29;99643.78;5015454;28;45430;-72
2021/12/04 01:49:48;;;;;;;;;10.75;9.75;;;;;6.27;80.13;99658.44;5015842;28;45312;-72
2021/12/04 01:52:17;;;;;;;;;9.25;8.00;;;;;6.41;79.64;99677.22;5009888;28;45426;-72
2021/12/04 01:54:42;;;;;;;;;16.50;12.75;;;;;6.41;80.36;99679.84;5010213;28;45546;-72
2021/12/04 01:57:08;;;;;;;;;13.00;12.00;;;;;6.27;79.82;99646.16;5012926;28;45770;-73
2021/12/04 01:59:33;;;;;;;;;15.75;14.00;;;;;6.41;80.59;99660.59;5008919;28;45534;-72
2021/12/04 02:01:58;;;;;;;;;18.00;10.50;;;;;6.39;79.63;99650.16;5004209;28;45605;-72
2021/12/04 02:04:24;;;;;;;;;18.25;12.00;;;;;6.43;80.21;99670.16;5015679;28;45268;-72
2021/12/04 02:06:49;;;;;;;;;12.00;11.75;;;;;6.42;80.50;99667.59;5018618;28;45648;-73
2021/12/04 02:09:15;;;;;;;;;17.00;12.75;;;;;6.42;80.15;99663.19;5006890;28;45394;-72
2021/12/04 02:11:40;;;;;;;;;21.50;10.50;;;;;6.42;79.66;99657.06;5014673;28;45434;-72
2021/12/04 02:14:06;;;;;;;;;20.50;16.00;;;;;6.33;80.63;99645.97;5012610;28;45736;-72
2021/12/04 02:16:32;;;;;;;;;19.25;17.75;;;;;6.24;80.57;99617.38;5015442;28;45486;-72
2021/12/04 02:18:57;;;;;;;;;25.25;19.00;;;;;6.45;79.88;99647.31;5015157;28;45359;-72
2021/12/04 02:21:22;;;;;;;;;21.00;19.75;;;;;6.44;80.16;99642.09;5015825;28;45310;-72
2021/12/04 02:23:48;;;;;;;;;21.75;16.75;;;;;6.36;80.41;99626.59;5015554;28;45318;-72
2021/12/04 02:26:13;;;;;;;;;20.00;18.25;;;;;6.47;80.04;99645.50;5015685;28;45400;-72
2021/12/04 02:28:43;;;;;;;;;18.50;15.25;;;;;6.37;80.28;99617.78;5015237;28;45343;-72
2021/12/04 02:31:08;;;;;;;;;18.00;13.50;;;;;6.49;79.72;99630.50;5010849;28;45547;-72
2021/12/04 02:33:33;;;;;;;;;15.00;14.00;;;;;6.52;80.04;99632.16;5015120;28;45654;-72
2021/12/04 02:36:02;;;;;;;;;15.75;12.75;;;;;6.52;80.54;99632.16;5015536;28;46899;-72
2021/12/04 02:38:28;;;;;;;;;19.00;15.50;;;;;6.40;80.51;99611.59;4999865;28;45442;-72
2021/12/04 02:40:56;;;;;;;;;13.00;9.00;;;;;6.58;79.66;99642.47;5016177;28;45483;-72
2021/12/04 02:43:22;;;;;;;;;13.75;11.50;;;;;6.55;80.28;99645.19;5011458;28;45513;-72
2021/12/04 02:45:48;;;;;;;;;16.00;12.50;;;;;6.61;79.72;99650.25;5012629;28;45451;-72
2021/12/04 02:48:14;;;;;;;;;13.75;12.25;;;;;6.62;79.83;99659.88;5006199;28;45618;-72
2021/12/04 02:50:40;;;;;;;;;9.50;9.25;;;;;6.66;79.87;99663.25;5015159;28;45716;-72
2021/12/04 02:53:06;;;;;;;;;14.00;12.00;;;;;6.68;80.04;99671.94;5014477;28;45576;-72
2021/12/04 02:55:31;;;;;;;;;14.75;12.25;;;;;6.69;80.34;99658.72;5015904;28;45794;-72
2021/12/04 02:57:57;;;;;;;;;12.50;12.50;;;;;6.70;80.05;99660.44;5014476;28;45577;-72
2021/12/04 03:00:25;;;;;;;;;13.00;10.50;;;;;6.65;80.41;99654.50;5013321;28;45576;-72
2021/12/04 03:02:51;;;;;;;;;15.25;12.00;;;;;6.75;80.25;99673.44;5010132;28;46033;-72
2021/12/04 03:05:24;;;;;;;;;15.00;13.50;;;;;6.75;80.16;99676.91;5006794;28;45782;-72
2021/12/04 03:07:51;;;;;;;;;24.25;18.75;;;;;6.58;80.12;99643.31;5014242;28;45424;-72
2021/12/04 03:10:17;;;;;;;;;21.25;16.50;;;;;6.59;80.12;99633.69;5014707;28;45509;-72
2021/12/04 03:12:43;;;;;;;;;22.75;20.00;;;;;6.80;80.24;99671.50;5014453;28;46057;-72
2021/12/04 03:15:08;;;;;;;;;17.50;15.25;;;;;6.81;79.83;99673.22;5013263;28;45579;-72
2021/12/04 03:17:34;;;;;;;;;20.00;16.25;;;;;6.79;80.53;99675.03;5005990;28;45309;-72
2021/12/04 03:20:00;;;;;;;;;19.00;18.00;;;;;6.84;80.57;99678.34;5015020;28;45388;-72
2021/12/04 03:22:26;;;;;;;;;24.25;14.25;;;;;6.80;80.42;99668.88;5015236;28;45899;-72
2021/12/04 03:24:52;;;;;;;;;17.50;15.25;;;;;6.87;79.97;99677.38;5013731;28;45296;-72
2021/12/04 03:27:19;;;;;;;;;20.75;13.75;;;;;6.88;80.68;99671.22;5013309;28;45566;-72
2021/12/04 03:29:53;;;;;;;;;19.50;15.25;;;;;6.83;80.77;99656.47;5011811;28;45456;-72
2021/12/04 03:35:26;;;;;;;;;19.50;14.75;;;;;6.80;80.55;99664.47;5011663;28;45479;-72
2021/12/04 03:43:07;;;;;;;;;22.50;16.75;;;;;6.92;79.27;99678.94;5013607;28;46003;-72
2021/12/04 03:45:35;;;;;;;;;16.00;13.75;;;;;6.79;80.04;99665.38;5013944;28;45545;-72
2021/12/04 03:48:08;;;;;;;;;18.25;16.50;;;;;6.95;80.27;99680.63;5014574;28;45403;-72
2021/12/04 03:50:34;;;;;;;;;19.75;18.00;;;;;6.83;80.22;99651.22;5003537;28;47368;-72
2021/12/04 03:53:00;;;;;;;;;19.00;15.50;;;;;6.78;80.35;99639.13;5015006;28;46263;-72
2021/12/04 03:55:25;;;;;;;;;22.25;15.25;;;;;6.90;80.71;99651.81;5014057;28;45486;-72
2021/12/04 03:57:52;;;;;;;;;21.75;18.00;;;;;7.00;80.75;99668.13;5006603;28;45319;-72
2021/12/04 04:00:20;;;;;;;;;19.00;13.25;;;;;7.02;80.16;99655.78;5004504;28;45511;-72
2021/12/04 04:02:46;;;;;;;;;23.25;15.00;;;;;6.97;80.47;99631.41;5010048;28;45338;-72
2021/12/04 04:05:12;;;;;;;;;23.75;18.00;;;;;7.03;79.98;99633.84;5005792;28;45572;-72
2021/12/04 04:07:38;;;;;;;;;29.25;17.75;;;;;7.04;80.52;99641.66;5014495;28;45389;-72
2021/12/04 04:10:05;;;;;;;;;29.25;19.75;;;;;7.03;80.47;99636.47;5013578;28;45505;-72
2021/12/04 04:12:30;;;;;;;;;19.75;17.00;;;;;6.89;80.24;99607.19;5012760;28;46624;-72
2021/12/04 04:14:56;;;;;;;;;19.00;17.25;;;;;6.93;80.62;99612.25;5005065;28;45357;-72
2021/12/04 04:17:22;;;;;;;;;21.00;19.00;;;;;7.06;80.78;99633.72;5017041;28;45529;-72
2021/12/04 04:19:47;;;;;;;;;23.25;19.50;;;;;6.97;80.73;99627.03;5018206;28;45285;-72
2021/12/04 04:22:12;;;;;;;;;19.75;19.00;;;;;6.93;79.76;99614.91;5012275;28;46274;-73
2021/12/04 04:24:38;;;;;;;;;26.75;19.25;;;;;7.08;79.55;99636.28;5015992;28;45575;-72
2021/12/04 04:27:03;;;;;;;;;23.25;19.25;;;;;6.91;79.54;99608.84;5006774;28;45427;-72
2021/12/04 04:29:29;;;;;;;;;18.50;16.25;;;;;7.01;79.57;99617.25;5015884;28;45411;-72
2021/12/04 04:31:55;;;;;;;;;18.75;15.50;;;;;7.00;79.81;99620.78;5011635;28;48458;-72
2021/12/04 04:34:31;;;;;;;;;20.00;18.00;;;;;7.04;79.75;99619.75;5015900;28;45398;-72
2021/12/04 05:15:09;;;;;;;;;19.25;15.75;;;;;6.95;79.20;99597.28;4976327;28;45506;-73
2021/12/04 05:20:21;;;;;;;;;26.25;16.50;;;;;6.94;80.16;99578.91;4976262;28;45338;-73
2021/12/04 05:22:46;;;;;;;;;17.25;16.00;;;;;6.93;79.58;99580.69;4957504;28;45580;-73
2021/12/04 05:25:12;;;;;;;;;21.75;14.50;;;;;6.91;79.29;99561.50;4975443;28;45386;-73
2021/12/04 05:27:37;;;;;;;;;23.25;18.50;;;;;7.04;79.79;99589.03;4976020;28;45469;-73
2021/12/04 05:30:05;;;;;;;;;17.25;16.00;;;;;7.05;79.69;99584.63;4959741;28;45484;-73
2021/12/04 05:32:31;;;;;;;;;14.00;13.25;;;;;6.92;79.79;99565.00;4976152;28;45473;-73
2021/12/04 05:34:56;;;;;;;;;20.25;16.50;;;;;7.06;79.25;99591.63;4975209;28;45348;-73
2021/12/04 05:37:22;;;;;;;;;18.75;16.25;;;;;7.06;79.43;99586.38;4981586;28;45456;-73
2021/12/04 05:39:47;;;;;;;;;22.25;15.00;;;;;6.91;80.00;99558.00;5016549;28;45402;-73
2021/12/04 05:42:13;;;;;;;;;25.00;19.00;;;;;6.86;79.52;99549.44;5016156;28;45456;-73
2021/12/04 05:44:39;;;;;;;;;20.25;18.25;;;;;7.06;79.61;99589.00;5015808;28;45904;-73
2021/12/04 05:47:43;;;;;;;;;21.00;18.00;;;;;7.06;79.60;99594.25;5012913;28;45651;-72
2021/12/04 05:50:09;;;;;;;;;21.50;18.25;;;;;7.06;80.08;99591.63;4997010;28;45376;-73
2021/12/04 05:55:16;;;;;;;;;28.50;21.50;;;;;7.04;79.54;99591.69;5015705;28;45982;-73
2021/12/04 05:57:42;;;;;;;;;20.50;19.75;;;;;6.92;79.31;99571.09;5015820;28;45512;-73
2021/12/04 06:00:15;;;;;;;;;20.75;16.25;;;;;7.04;79.51;99583.78;5016287;28;45414;-73
2021/12/04 06:02:41;;;;;;;;;27.50;21.50;;;;;6.97;80.01;99576.16;5016133;28;45405;-73
2021/12/04 06:05:07;;;;;;;;;25.00;21.50;;;;;7.05;79.99;99589.91;5015977;28;46010;-73
2021/12/04 06:07:32;;;;;;;;;25.50;23.75;;;;;6.93;79.64;99577.22;5015443;28;45490;-73
2021/12/04 06:09:58;;;;;;;;;15.00;13.50;;;;;6.98;79.02;99593.69;5015493;28;45350;-73
2021/12/04 06:12:23;;;;;;;;;28.50;20.50;;;;;6.68;79.41;99543.97;5015745;28;45403;-73
2021/12/04 06:14:49;;;;;;;;;26.50;23.75;;;;;6.86;79.52;99568.72;5015469;28;45446;-73
2021/12/04 06:17:14;;;;;;;;;32.25;21.50;;;;;7.00;80.03;99590.09;5015237;28;45740;-72
2021/12/04 06:22:41;;;;;;;;;23.75;16.50;;;;;7.02;79.66;99580.34;5015582;28;45502;-72
2021/12/04 06:25:14;;;;;;;;;25.75;20.25;;;;;6.91;80.39;99569.41;5015182;28;45359;-73
2021/12/04 06:27:40;;;;;;;;;35.25;25.25;;;;;6.76;79.65;99541.88;5015207;28;45472;-73
2021/12/04 06:30:09;;;;;;;;;35.25;26.00;;;;;7.03;79.91;99578.59;5015694;28;45511;-72
2021/12/04 06:32:36;;;;;;;;;28.75;25.75;;;;;6.93;80.51;99545.66;5028997;28;45849;-73
2021/12/04 06:35:04;;;;;;;;;37.75;25.50;;;;;7.05;80.59;99553.06;5015554;28;46057;-73
2021/12/04 06:37:29;;;;;;;;;32.75;26.50;;;;;7.00;80.27;99549.75;5015059;28;45462;-73
2021/12/04 06:39:55;;;;;;;;;29.00;21.00;;;;;7.05;80.29;99546.03;5015849;28;45816;-73
2021/12/04 06:42:20;;;;;;;;;33.75;26.25;;;;;6.53;80.33;99444.63;5015441;28;45296;-73
2021/12/04 06:44:46;;;;;;;;;30.25;24.00;;;;;7.03;79.84;99523.34;5015011;28;45291;-73
2021/12/04 06:47:11;;;;;;;;;34.00;25.50;;;;;7.10;79.74;99531.84;5015291;28;45249;-72
2021/12/04 06:49:40;;;;;;;;;26.25;21.75;;;;;6.95;80.23;99515.75;5001459;28;45717;-72
2021/12/04 06:52:10;;;;;;;;;32.25;21.00;;;;;6.89;79.94;99494.09;5012130;28;47037;-72
2021/12/04 06:54:38;;;;;;;;;34.75;21.25;;;;;7.07;80.22;99527.56;5014970;28;45481;-72
2021/12/04 06:57:08;;;;;;;;;27.50;23.50;;;;;6.76;80.11;99477.91;5015223;28;45489;-72
2021/12/04 06:59:34;;;;;;;;;29.25;23.50;;;;;7.03;80.27;99521.56;5013915;28;45385;-72
2021/12/04 07:01:59;;;;;;;;;21.50;18.25;;;;;6.70;80.50;99465.00;5015448;28;45727;-72
2021/12/04 07:04:37;;;;;;;;;29.00;16.50;;;;;6.95;80.16;99517.53;5014737;28;45367;-72
2021/12/04 07:07:08;;;;;;;;;33.00;22.50;;;;;6.98;80.28;99535.81;5014514;28;45663;-72
2021/12/04 07:09:35;;;;;;;;;21.50;18.25;;;;;6.82;80.86;99525.91;5014469;28;45353;-72
2021/12/04 07:12:00;;;;;;;;;30.75;21.50;;;;;6.91;80.81;99536.97;5014814;28;45499;-72
2021/12/04 07:14:30;;;;;;;;;26.25;21.50;;;;;6.90;80.68;99525.59;5014650;28;46743;-72
2021/12/04 07:16:57;;;;;;;;;10.75;6.50;;;;;6.92;80.26;99525.53;5003863;28;45337;-72
2021/12/04 07:19:22;;;;;;;;;22.25;16.75;;;;;6.86;80.29;99505.59;5014249;28;45342;-72
2021/12/04 07:21:48;;;;;;;;;25.00;18.75;;;;;6.93;80.26;99521.97;5014602;28;45391;-72
2021/12/04 07:24:15;;;;;;;;;32.25;23.50;;;;;6.70;80.39;99492.16;5014423;28;45415;-72
2021/12/04 07:26:40;;;;;;;;;17.75;15.25;;;;;6.75;80.31;99499.88;5011753;28;45520;-72
2021/12/04 07:29:07;;;;;;;;;23.75;18.00;;;;;6.87;80.47;99516.97;5015207;28;45284;-72
2021/12/04 07:31:33;;;;;;;;;20.25;14.50;;;;;6.86;80.77;99531.03;5015011;28;45468;-72
2021/12/04 07:33:59;;;;;;;;;27.50;16.25;;;;;6.73;81.03;99510.44;5014019;28;45355;-72
2021/12/04 07:36:24;;;;;;;;;73.50;53.75;;;;;6.83;80.92;99535.50;5012823;28;45387;-73
2021/12/04 07:38:50;;;;;;;;;145.75;107.25;;;;;6.89;80.84;99525.66;5006405;28;45776;-72
2021/12/04 07:41:16;;;;;;;;;27.75;17.75;;;;;6.92;80.10;99534.28;5014495;28;45336;-72
2021/12/04 07:43:42;;;;;;;;;25.25;18.50;;;;;6.68;80.33;99493.16;5013846;28;46307;-71
2021/12/04 07:46:07;;;;;;;;;22.50;20.00;;;;;6.92;80.49;99534.28;5014113;28;45379;-71
2021/12/04 07:48:33;;;;;;;;;19.50;18.00;;;;;6.75;80.60;99497.25;5013915;28;45423;-71
2021/12/04 07:51:01;;;;;;;;;20.50;14.75;;;;;6.92;80.75;99525.53;5014604;28;45250;-73
2021/12/04 07:53:27;;;;;;;;;28.75;23.25;;;;;6.77;80.47;99491.03;5013910;28;46401;-72
2021/12/04 07:55:53;;;;;;;;;24.25;19.50;;;;;6.96;80.35;99527.13;5014788;28;45455;-72
2021/12/04 07:58:18;;;;;;;;;30.25;17.50;;;;;6.95;80.59;99517.53;5008826;28;45554;-72
2021/12/04 08:00:44;;;;;;;;;33.25;19.25;;;;;6.96;80.45;99508.72;5008719;28;45408;-72
2021/12/04 08:03:09;;;;;;;;;29.50;22.25;;;;;6.76;80.38;99464.78;5007896;28;47057;-73
2021/12/04 08:05:35;;;;;;;;;26.50;18.00;;;;;6.97;80.48;99503.41;5012652;28;45676;-73
2021/12/04 08:08:02;;;;;;;;;25.75;20.00;;;;;6.98;80.20;99485.84;5012153;28;45461;-72
2021/12/04 08:10:28;;;;;;;;;29.00;23.75;;;;;6.99;80.57;99477.88;5014369;28;45392;-72
2021/12/04 08:12:53;;;;;;;;;34.25;19.75;;;;;7.02;80.23;99492.69;5008801;28;46606;-73
2021/12/04 08:15:20;;;;;;;;;35.50;17.75;;;;;6.99;80.41;99490.19;5010095;28;46018;-72
2021/12/04 08:17:46;;;;;;;;;20.25;16.00;;;;;7.02;80.37;99495.31;5013873;28;45337;-73
2021/12/04 08:20:14;;;;;;;;;28.50;19.50;;;;;7.03;80.09;99489.16;5013910;28;45531;-73
2021/12/04 08:22:40;;;;;;;;;19.25;14.75;;;;;6.93;80.31;99472.00;5014467;28;46299;-73
2021/12/04 08:25:06;;;;;;;;;22.25;16.00;;;;;6.96;80.49;99477.16;5013715;28;45454;-74
2021/12/04 08:27:32;;;;;;;;;30.00;17.25;;;;;6.91;80.44;99466.81;5005188;28;45424;-73
2021/12/04 08:29:57;;;;;;;;;17.50;15.50;;;;;7.03;80.16;99486.53;5002274;28;45393;-75
2021/12/04 08:32:23;;;;;;;;;29.25;14.50;;;;;6.95;80.63;99478.06;5013293;28;45401;-73
2021/12/04 08:34:50;;;;;;;;;19.75;16.50;;;;;7.01;80.75;99493.63;5010712;28;45451;-73
2021/12/04 08:37:15;;;;;;;;;20.75;15.75;;;;;6.85;80.66;99476.72;5004672;28;45365;-74
2021/12/04 08:39:41;;;;;;;;;18.75;12.50;;;;;6.93;80.18;99493.91;5004121;28;45300;-74
2021/12/04 08:42:06;;;;;;;;;19.75;17.25;;;;;6.92;80.32;99483.47;5004235;28;46022;-74
2021/12/04 08:44:33;;;;;;;;;24.00;16.00;;;;;6.85;80.75;99476.72;5001544;28;45687;-74
2021/12/04 08:46:59;;;;;;;;;18.50;15.75;;;;;6.98;80.96;99501.63;5005369;28;45321;-73
2021/12/04 08:49:26;;;;;;;;;23.75;14.00;;;;;6.98;80.53;99501.63;5012184;28;45458;-74
2021/12/04 08:51:52;;;;;;;;;23.00;18.25;;;;;6.89;80.56;99486.22;5007311;28;45625;-74
2021/12/04 08:54:18;;;;;;;;;15.50;13.50;;;;;6.73;81.04;99462.25;5011754;28;45426;-74
2021/12/04 08:56:43;;;;;;;;;22.75;17.25;;;;;6.74;81.15;99480.63;5011691;28;45295;-73
2021/12/04 08:59:09;;;;;;;;;50.75;37.75;;;;;6.81;80.82;99504.91;5011516;28;45508;-73
2021/12/04 09:01:38;;;;;;;;;25.25;20.00;;;;;6.77;81.04;99501.53;5015532;28;45437;-72
2021/12/04 09:04:08;;;;;;;;;23.50;21.00;;;;;6.79;81.30;99507.59;5014780;28;45470;-72
2021/12/04 09:06:39;;;;;;;;;19.50;14.00;;;;;6.85;81.01;99510.91;5011949;28;45371;-72
2021/12/04 09:09:08;;;;;;;;;26.00;21.00;;;;;6.62;81.24;99481.09;5010730;28;45507;-71
2021/12/04 09:11:41;;;;;;;;;19.75;15.75;;;;;6.81;81.17;99521.53;5014714;28;46420;-71
2021/12/04 09:14:07;;;;;;;;;17.75;16.25;;;;;6.75;81.49;99518.28;5015920;28;45464;-71
2021/12/04 09:16:33;;;;;;;;;18.00;17.75;;;;;6.70;81.80;99522.84;5016328;28;45778;-73
2021/12/04 09:18:58;;;;;;;;;19.50;17.75;;;;;6.70;81.41;99515.81;5014799;28;45470;-73
2021/12/04 09:21:25;;;;;;;;;19.50;14.00;;;;;6.73;81.66;99525.38;5013815;28;46754;-73
2021/12/04 09:24:00;;;;;;;;;22.50;21.25;;;;;6.46;81.57;99475.53;5014273;28;45717;-73
2021/12/04 09:26:55;;;;;;;;;14.00;9.75;;;;;6.76;81.92;99530.50;5016616;28;45533;-72
2021/12/04 10:21:06;;;;;;;;;9.50;8.00;;;;;6.68;82.04;99582.53;5016025;28;45351;-73
2021/12/04 10:34:35;;;;;;;;;3.75;3.25;;;;;6.94;80.93;99592.06;5015380;28;45363;-73
2021/12/04 10:37:25;;;;;;;;;4.00;4.00;;;;;6.80;80.97;99551.38;5015459;28;46459;-73
2021/12/04 10:40:18;;;;;;;;;6.75;6.00;;;;;7.02;80.59;99574.22;5015205;28;45620;-73
2021/12/04 10:42:53;;;;;;;;;4.00;3.00;;;;;7.04;81.16;99575.91;5011673;28;45229;-70
2021/12/04 10:45:30;;;;;;;;;3.00;3.00;;;;;6.91;81.23;99542.22;5014956;28;45506;-72
2021/12/04 10:47:58;;;;;;;;;5.00;3.75;;;;;7.09;81.48;99561.69;5009583;28;46277;-72
2021/12/04 10:51:20;;;;;;;;;3.00;3.00;;;;;7.02;80.90;99554.03;5005552;28;45434;-72
2021/12/04 10:53:21;;;;;;;;;5.75;4.75;;;;;7.12;80.15;99554.56;5005196;28;45580;-72
2021/12/04 11:04:05;;;;;;;;;6.50;3.00;;;;;7.08;81.69;99538.94;4975927;28;45514;-73
2021/12/04 11:21:56;;;;;;;;;6.25;3.00;;;;;7.08;81.70;99533.69;4891079;28;45483;-74
2021/12/04 11:42:47;;;;;;;;;9.75;7.75;;;;;7.33;81.21;99579.19;4953216;28;45694;-73
2021/12/04 11:45:15;;;;;;;;;8.00;5.25;;;;;7.36;81.43;99573.78;4951452;28;45597;-73
2021/12/04 11:47:45;;;;;;;;;7.25;5.25;;;;;7.29;80.52;99567.03;4953075;28;45508;-73
2021/12/04 11:50:23;;;;;;;;;7.75;6.75;;;;;7.36;81.32;99573.78;4953370;28;45503;-74
2021/12/04 11:53:04;;;;;;;;;7.25;6.50;;;;;7.37;80.98;99574.63;4971139;28;45370;-73
2021/12/04 11:55:34;;;;;;;;;3.00;3.00;;;;;7.38;80.39;99584.25;5014301;28;45451;-73
2021/12/04 11:58:00;;;;;;;;;4.00;4.00;;;;;7.23;81.06;99562.88;5009442;28;45347;-73
2021/12/04 12:00:36;;;;;;;;;6.50;5.25;;;;;7.38;80.82;99566.69;5013006;28;45572;-73
2021/12/04 12:03:18;;;;;;;;;7.00;3.75;;;;;7.46;81.09;99585.66;5012925;28;46327;-74
2021/12/04 12:05:52;;;;;;;;;5.00;3.25;;;;;7.36;81.00;99557.16;4999660;28;45541;-74
2021/12/04 12:08:29;;;;;;;;;7.50;4.00;;;;;7.59;81.53;99587.78;4997687;28;45404;-74
2021/12/04 12:11:00;;;;;;;;;9.00;6.00;;;;;7.52;79.99;99568.75;5014653;28;45301;-73
2021/12/04 12:13:39;;;;;;;;;2.50;2.00;;;;;7.65;80.23;99590.22;5013830;28;46213;-73
2021/12/04 12:16:17;;;;;;;;;2.25;2.00;;;;;7.67;80.35;99591.81;5013936;28;45434;-73
2021/12/04 12:19:29;;;;;;;;;4.75;2.00;;;;;7.61;79.75;99578.91;5014225;28;45498;-73
2021/12/04 12:31:45;;;;;;;;;11.75;8.50;;;;;7.78;79.47;99617.75;4933157;28;45480;-73
2021/12/04 12:36:09;;;;;;;;;20.00;14.50;;;;;7.71;79.33;99617.13;4936119;28;46121;-72
2021/12/04 12:38:50;;;;;;;;;4.75;4.25;;;;;7.82;78.74;99631.63;4936509;28;45379;-72
2021/12/04 12:41:37;;;;;;;;;5.00;4.00;;;;;7.73;78.52;99623.22;4920430;28;45628;-72
2021/12/04 12:44:03;;;;;;;;;4.75;4.75;;;;;7.84;79.17;99635.06;4933817;28;45391;-72
2021/12/04 12:46:35;;;;;;;;;4.00;3.00;;;;;7.86;79.15;99638.50;4937247;28;45439;-72
2021/12/04 12:49:01;;;;;;;;;9.00;7.00;;;;;7.92;79.07;99652.28;4936377;28;45526;-72
2021/12/04 12:51:36;;;;;;;;;6.75;4.75;;;;;7.91;78.16;99645.31;4935827;28;45526;-72
2021/12/04 12:54:05;;;;;;;;;8.00;5.50;;;;;7.95;78.39;99652.16;4936440;28;45607;-73
2021/12/04 12:56:34;;;;;;;;;7.00;3.50;;;;;7.97;77.77;99652.97;4950632;28;46076;-72
2021/12/04 12:59:07;;;;;;;;;9.25;6.00;;;;;7.89;77.77;99627.84;5017551;28;45263;-72
2021/12/04 13:12:50;;;;;;;;;7.75;7.75;;;;;7.93;76.83;99640.81;5016437;28;45387;-72
2021/12/04 13:15:30;;;;;;;;;8.25;8.00;;;;;8.01;76.64;99644.94;5016608;28;45497;-72
2021/12/04 13:18:07;;;;;;;;;10.75;10.75;;;;;7.68;77.24;99600.63;5016476;28;46098;-72
2021/12/04 13:20:33;;;;;;;;;13.50;8.75;;;;;7.91;75.46;99645.31;5014985;28;45501;-71
2021/12/04 13:22:58;;;;;;;;;17.75;8.25;;;;;8.00;76.40;99641.44;5012690;28;45791;-71
2021/12/04 13:25:24;;;;;;;;;12.50;9.25;;;;;7.56;77.16;99562.47;5015209;28;45653;-72
2021/12/04 13:30:16;;;;;;;;;9.50;4.50;;;;;8.16;76.36;99644.28;5016461;28;45395;-72
2021/12/04 13:32:45;;;;;;;;;4.75;4.00;;;;;8.08;77.21;99631.41;5016417;28;45410;-73
2021/12/04 13:35:20;;;;;;;;;9.00;4.00;;;;;8.48;76.88;99600.78;5013495;28;45418;-73
2021/12/04 13:37:47;;;;;;;;;8.25;4.00;;;;;8.80;75.46;99644.19;5027063;28;47099;-73
2021/12/04 13:40:16;;;;;;;;;3.00;3.00;;;;;8.57;73.13;99618.81;5016101;28;45421;-72
2021/12/04 13:42:43;;;;;;;;;8.00;2.00;;;;;8.58;73.43;99630.22;5016356;28;45375;-72
2021/12/04 13:45:14;;;;;;;;;7.00;3.00;;;;;8.60;72.20;99649.50;5015439;28;45391;-72
2021/12/04 13:47:40;;;;;;;;;10.50;4.50;;;;;8.43;72.91;99649.34;5012094;28;45493;-72
2021/12/04 13:52:54;;;;;;;;;8.00;3.00;;;;;8.36;72.81;99654.00;5012057;28;45383;-72
2021/12/04 13:55:21;;;;;;;;;26.75;20.00;;;;;8.42;71.60;99666.97;5015782;28;45575;-72
2021/12/04 13:57:46;;;;;;;;;17.25;11.50;;;;;8.33;72.18;99662.03;5015980;28;46110;-72
2021/12/04 14:00:14;;;;;;;;;15.50;11.25;;;;;8.36;71.94;99677.72;5014815;28;45706;-71
2021/12/04 14:02:39;;;;;;;;;13.00;10.00;;;;;8.35;73.59;99676.00;5016339;28;45559;-71
2021/12/04 14:05:13;;;;;;;;;22.25;15.75;;;;;8.32;72.74;99684.03;5015386;28;45376;-71
2021/12/04 14:07:52;;;;;;;;;7.00;5.00;;;;;8.25;72.47;99680.81;5013934;28;46251;-71
2021/12/04 14:10:25;;;;;;;;;10.00;7.00;;;;;8.20;71.17;99683.63;5016300;28;45221;-71
2021/12/04 14:12:51;;;;;;;;;12.00;9.25;;;;;8.03;71.15;99665.03;5015812;28;45385;-72
2021/12/04 14:15:20;;;;;;;;;10.50;8.25;;;;;8.12;71.35;99690.16;5014455;28;45489;-72
2021/12/04 14:17:49;;;;;;;;;4.25;3.00;;;;;8.05;71.56;99675.50;5015654;28;45687;-74
2021/12/04 14:20:21;;;;;;;;;10.25;7.75;;;;;8.03;70.80;99688.75;5015224;28;45410;-73
2021/12/04 14:22:49;;;;;;;;;14.50;8.00;;;;;7.93;71.26;99674.22;5016450;28;45572;-70
2021/12/04 14:25:16;;;;;;;;;8.75;3.00;;;;;7.92;71.28;99676.00;5015870;28;45421;-72
2021/12/04 14:27:42;;;;;;;;;10.00;9.50;;;;;7.67;72.55;99635.75;5015305;28;45534;-76
2021/12/04 14:30:12;;;;;;;;;8.00;4.00;;;;;7.79;71.49;99666.84;5015530;28;45541;-74
2021/12/04 14:32:40;;;;;;;;;9.00;7.50;;;;;7.87;71.19;99688.47;5006815;28;45424;-72
2021/12/04 14:35:16;;;;;;;;;8.75;5.00;;;;;7.98;70.96;99693.34;5012020;28;45272;-73
2021/12/04 14:37:48;;;;;;;;;15.00;7.25;;;;;7.95;71.25;99688.19;5014430;28;45392;-72
2021/12/04 14:40:21;;;;;;;;;8.00;7.50;;;;;7.94;70.64;99691.72;5014929;28;45604;-72
2021/12/04 14:42:48;;;;;;;;;8.00;7.25;;;;;8.02;70.69;99723.91;5015419;28;45348;-72
2021/12/04 14:45:20;;;;;;;;;18.50;8.50;;;;;8.03;70.80;99723.00;5013299;28;45543;-72
2021/12/04 14:48:06;;;;;;;;;7.00;7.00;;;;;7.85;71.16;99708.78;5015109;28;46174;-72
2021/12/04 14:50:33;;;;;;;;;12.00;8.00;;;;;8.09;71.52;99740.31;5000197;28;45584;-72
2021/12/04 14:53:02;;;;;;;;;4.00;3.00;;;;;8.05;71.28;99729.03;5013236;28;45448;-72
2021/12/04 14:55:32;;;;;;;;;26.75;16.50;;;;;8.07;71.18;99735.13;5013882;28;45505;-72
2021/12/04 14:57:57;;;;;;;;;11.75;4.25;;;;;8.05;70.36;99736.09;5012053;28;47146;-71
2021/12/04 15:00:31;;;;;;;;;7.25;7.25;;;;;7.85;69.89;99716.69;5013172;28;45669;-71